Latest Weather Observations for Gove Airport

IDD60801

Issued at 9:01 pm CST Monday 6 July 2015 (issued every 30 minutes, with the page automatically refreshed every 10 minutes)

About weather observations | Map of weather stations | Latest weather observations for NT | Other Formats
Station Details ID: 014508 Name: GOVE AIRPORT Lat: -12.27 Lon: 136.82 Height: 51.6 m
Data from the previous 72 hours. | See also: Recent months at Gove Airport
Date/Time
CST
Temp
°C
App
Temp
°C
Dew
Point
Rel
Hum
%
Delta-T
°C
Wind Press
QNH
hPa
Press
MSL
hPa
Rain
since 9 am
mm
Dir
 
Spd
km/h
Gust
km/h
Spd
kts
Gust
kts
06/09:00pm 21.1 23.3 19.7 92 0.9 N 7 7 4 4 1014.0 1013.7 0.0
06/08:30pm 21.7 24.1 19.7 88 1.3 E 6 7 3 4 1013.8 - 0.0
06/08:00pm 23.3 24.9 19.9 81 2.2 E 11 13 6 7 1013.5 - 0.0
06/07:30pm 23.4 24.9 19.8 80 2.3 E 11 13 6 7 1013.3 - 0.0
06/07:00pm 23.7 24.9 20.0 80 2.4 E 13 17 7 9 1013.2 - 0.0
06/06:30pm 24.3 25.0 19.6 75 3.0 ESE 15 19 8 10 1012.9 - 0.0
06/06:00pm 25.0 25.3 19.6 72 3.5 ESE 17 20 9 11 1012.6 1012.3 0.0
06/05:30pm 25.8 25.5 19.6 68 4.0 E 20 28 11 15 1012.4 - 0.0
06/05:00pm 26.2 25.5 19.4 66 4.4 E 22 30 12 16 1012.2 - 0.0
06/04:30pm 26.2 24.9 19.9 68 4.1 ESE 26 33 14 18 1012.0 - 0.0
06/04:00pm 26.6 24.4 18.6 61 5.1 ESE 28 35 15 19 1012.0 - 0.0
06/03:30pm 27.0 25.4 19.1 62 5.1 E 26 35 14 19 1012.2 - 0.0
06/03:00pm 27.7 25.6 19.0 59 5.6 E 28 35 15 19 1012.3 1012.0 0.0
06/02:30pm 27.7 26.9 20.1 63 5.0 E 24 35 13 19 1012.4 - 0.0
06/02:00pm 28.2 27.1 19.4 59 5.7 E 24 32 13 17 1012.7 - 0.0
06/01:30pm 27.3 25.8 19.4 62 5.1 E 26 37 14 20 1013.0 - 0.0
06/01:00pm 28.3 26.1 19.6 59 5.7 E 30 37 16 20 1013.3 - 0.0
06/12:30pm 27.9 25.3 18.7 57 5.9 E 30 41 16 22 1013.7 - 0.0
06/12:00pm 27.3 26.2 20.3 65 4.6 E 26 35 14 19 1014.0 1013.7 0.0
06/11:30am 27.6 26.9 20.3 64 4.8 ESE 24 35 13 19 1014.4 - 0.0
06/11:00am 27.9 31.1 27.5 98 0.3 E 26 35 14 19 1014.7 - 0.0
06/10:30am 27.8 30.4 27.2 97 0.4 E 28 35 15 19 1014.8 - 0.0
06/10:00am 27.0 27.6 24.7 87 1.6 ESE 30 37 16 20 1014.9 - 0.0
06/09:30am 26.8 25.1 19.7 65 4.6 ESE 28 35 15 19 1014.9 - 0.0
06/09:00am 26.5 25.8 19.4 65 4.6 ESE 22 30 12 16 1015.0 1014.8 1.2
06/08:30am 25.4 26.3 20.0 72 3.5 E 15 20 8 11 1015.0 - 1.2
06/07:30am 21.8 24.1 19.9 89 1.2 ESE 7 9 4 5 1014.3 - 1.2
06/07:00am 20.0 22.1 18.9 93 0.7 ESE 6 7 3 4 1014.1 - 1.2
06/06:30am 20.3 22.2 18.9 92 0.9 SE 7 9 4 5 1013.9 - 1.2
06/05:30am 20.6 22.1 18.9 90 1.1 ESE 9 11 5 6 1013.5 - 1.2
06/05:00am 20.5 21.9 18.7 89 1.1 ESE 9 11 5 6 1013.6 - 1.2
06/04:30am 20.3 21.8 18.9 92 0.9 ESE 9 11 5 6 1013.4 - 1.2
06/04:00am 20.7 22.2 18.8 89 1.2 ESE 9 11 5 6 1013.3 - 1.2
06/03:30am 21.3 22.6 19.4 89 1.2 E 11 13 6 7 1013.3 - 1.2
06/03:00am 21.8 24.2 20.9 95 0.6 SSE 9 9 5 5 1013.5 1013.2 1.2
06/02:30am 22.2 24.9 21.3 95 0.6 SE 9 13 5 7 1013.6 - 1.2
06/02:00am 22.6 25.3 21.4 93 0.8 SE 9 13 5 7 1013.8 - 1.2
06/01:30am 22.7 25.0 21.3 92 0.9 ENE 11 17 6 9 1014.0 - 1.2
06/01:00am 22.6 25.4 21.5 93 0.7 NE 9 11 5 6 1014.2 - 1.2
06/12:30am 22.4 25.0 21.2 93 0.8 S 9 13 5 7 1014.3 - 1.2
06/12:00am 22.0 25.0 21.2 95 0.5 SSW 7 9 4 5 1014.6 1014.4 1.2
 
Date/Time
CST
Temp
°C
App
Temp
°C
Dew
Point
Rel
Hum
%
Delta-T
°C
Wind Press
QNH
hPa
Press
MSL
hPa
Rain
since 9 am
mm
Dir
 
Spd
km/h
Gust
km/h
Spd
kts
Gust
kts
05/11:30pm 22.2 25.1 21.1 93 0.7 S 7 9 4 5 1014.8 - 1.2
05/11:00pm 22.5 25.0 21.1 92 0.9 SSE 9 13 5 7 1014.9 - 1.2
05/10:30pm 22.5 24.7 21.1 92 0.9 S 11 13 6 7 1015.1 - 1.2
05/10:00pm 22.4 24.6 21.2 93 0.8 S 11 15 6 8 1015.1 - 1.2
05/09:30pm 22.3 25.2 21.1 93 0.8 S 7 11 4 6 1015.0 - 1.2
05/09:00pm 22.2 24.7 21.0 93 0.8 S 9 13 5 7 1014.8 1014.6 1.2
05/08:30pm 22.3 24.7 20.9 92 0.9 S 9 13 5 7 1014.6 - 1.2
05/08:00pm 22.2 24.7 21.0 93 0.8 S 9 11 5 6 1014.4 - 1.2
05/07:30pm 22.2 25.0 20.8 92 0.9 S 7 11 4 6 1014.1 - 1.2
05/07:00pm 22.2 24.4 20.5 90 1.1 S 9 13 5 7 1013.8 - 1.2
05/06:30pm 22.2 24.5 20.7 91 1.0 S 9 13 5 7 1013.6 - 1.2
05/06:00pm 22.5 24.6 21.0 91 1.0 SSE 11 15 6 8 1013.4 1013.1 1.2
05/05:30pm 22.9 25.3 20.9 88 1.3 S 9 11 5 6 1013.3 - 1.2
05/05:15pm 22.9 24.9 20.8 88 1.4 S 11 15 6 8 1013.2 - 1.2
05/05:00pm 23.1 25.2 21.0 88 1.4 SSE 11 17 6 9 1013.2 - 1.2
05/04:30pm 23.6 25.3 21.0 85 1.7 ESE 13 20 7 11 1013.3 - 1.2
05/04:19pm 23.1 24.7 20.8 87 1.5 ESE 13 19 7 10 1013.4 - 1.2
05/04:00pm 22.8 24.4 20.8 88 1.3 SE 13 20 7 11 1013.4 - 1.2
05/03:58pm 22.8 24.1 20.8 88 1.3 SSE 15 20 8 11 1013.4 - 1.2
05/03:47pm 22.8 24.2 21.0 89 1.2 SSE 15 20 8 11 1013.3 - 1.2
05/03:30pm 22.5 23.9 21.1 92 0.9 S 15 20 8 11 1013.3 - 1.2
05/03:00pm 22.8 24.7 21.4 92 0.9 S 13 20 7 11 1013.3 1013.0 1.2
05/02:30pm 22.9 24.9 21.5 92 0.9 SE 13 17 7 9 1013.5 - 1.2
05/02:27pm 22.7 24.7 21.5 93 0.8 SE 13 17 7 9 1013.5 - 1.2
05/02:00pm 22.8 24.4 22.2 96 0.4 ESE 17 24 9 13 1013.9 - 0.8
05/01:30pm 23.4 24.2 20.6 84 1.8 ESE 17 22 9 12 1014.2 - 0.2
05/01:29pm 23.6 24.8 20.7 84 1.9 ESE 15 22 8 12 1014.2 - 0.2
05/01:00pm 24.3 24.2 20.0 77 2.8 SSE 20 28 11 15 1014.2 - 0.2
05/12:30pm 25.4 25.3 18.8 67 4.2 ESE 17 24 9 13 1014.6 - 0.2
05/12:00pm 25.8 26.0 19.3 67 4.2 ESE 17 22 9 12 1014.9 1014.7 0.0
05/11:30am 25.6 25.6 19.0 67 4.2 ESE 17 20 9 11 1015.2 - 0.0
05/11:00am 24.9 25.3 19.8 73 3.3 ESE 17 22 9 12 1015.5 - 0.0
05/10:30am 25.1 26.1 20.2 74 3.2 E 15 20 8 11 1015.8 - 0.0
05/10:00am 25.0 25.1 19.2 70 3.7 E 17 22 9 12 1015.8 - 0.0
05/09:30am 24.4 24.7 19.6 74 3.1 E 17 20 9 11 1015.8 - 0.0
05/09:00am 24.2 25.3 19.7 76 2.9 E 13 17 7 9 1015.6 1015.4 0.0
05/08:30am 23.8 25.0 19.8 78 2.6 E 13 17 7 9 1015.5 - 0.0
05/08:00am 23.3 25.0 20.2 83 2.0 E 11 17 6 9 1015.1 - 0.0
05/07:30am 22.9 23.5 20.3 85 1.7 E 17 24 9 13 1014.9 - 0.0
05/07:00am 21.5 23.2 19.3 87 1.4 SE 9 11 5 6 1014.5 - 0.0
05/06:30am 20.9 22.9 18.8 88 1.3 ENE 6 7 3 4 1014.2 - 0.0
05/06:00am 20.6 22.3 18.5 88 1.3 SE 7 7 4 4 1013.9 1013.6 0.0
05/05:30am 20.0 21.7 18.6 92 0.9 NE 7 7 4 4 1013.8 - 0.0
05/05:00am 20.2 21.6 17.9 87 1.4 NNE 7 9 4 5 1013.8 - 0.0
05/04:30am 20.3 20.9 17.7 85 1.6 SSE 11 13 6 7 1013.6 - 0.0
05/04:00am 19.0 20.4 17.7 92 0.8 E 7 7 4 4 1013.8 - 0.0
05/03:30am 19.5 20.9 17.9 90 1.0 NE 7 9 4 5 1013.8 - 0.0
05/03:00am 20.4 21.9 18.1 87 1.4 ESE 7 9 4 5 1013.7 1013.4 0.0
05/02:30am 21.0 22.5 18.1 83 1.8 ENE 7 9 4 5 1013.9 - 0.0
05/02:00am 21.1 22.8 18.4 84 1.7 NE 7 9 4 5 1013.9 - 0.0
05/01:30am 21.6 23.0 18.6 83 1.9 SE 9 13 5 7 1014.0 - 0.0
05/01:00am 22.3 23.3 18.7 80 2.3 SE 11 15 6 8 1014.1 - 0.0
05/12:30am 22.3 23.3 18.7 80 2.3 SE 11 13 6 7 1014.1 - 0.0
05/12:00am 23.0 23.3 18.7 77 2.7 ESE 15 19 8 10 1014.2 1013.9 0.0
 
Date/Time
CST
Temp
°C
App
Temp
°C
Dew
Point
Rel
Hum
%
Delta-T
°C
Wind Press
QNH
hPa
Press
MSL
hPa
Rain
since 9 am
mm
Dir
 
Spd
km/h
Gust
km/h
Spd
kts
Gust
kts
04/11:30pm 23.3 23.1 18.5 74 3.0 ESE 17 22 9 12 1014.2 - 0.0
04/11:00pm 24.2 23.3 18.3 69 3.7 ESE 20 26 11 14 1014.1 - 0.0
04/10:30pm 24.3 23.6 18.6 70 3.6 ESE 20 28 11 15 1014.3 - 0.0
04/10:00pm 24.3 23.7 18.8 71 3.5 ESE 20 28 11 15 1014.4 - 0.0
04/09:30pm 23.8 23.9 19.1 75 3.0 ESE 17 22 9 12 1014.4 - 0.0
04/09:00pm 24.1 22.7 18.9 72 3.3 ESE 24 32 13 17 1014.5 1014.2 0.0
04/08:30pm 23.7 23.6 20.0 80 2.4 ESE 20 30 11 16 1014.2 - 0.0
04/08:00pm 23.8 25.5 19.3 76 2.9 SE 9 15 5 8 1013.9 - 0.0
04/07:30pm 22.4 24.8 20.1 87 1.5 S 7 11 4 6 1013.7 - 0.0
04/07:00pm 22.4 24.0 19.9 86 1.6 S 11 15 6 8 1013.6 - 0.0
04/06:30pm 22.9 23.8 19.3 80 2.3 S 13 22 7 12 1013.2 - 0.0
04/06:00pm 23.5 23.9 19.1 76 2.8 SSE 15 30 8 16 1013.0 1012.7 0.0
04/05:30pm 23.6 24.0 18.9 75 3.0 SSE 15 20 8 11 1012.6 - 0.0
04/05:00pm 23.4 23.7 19.5 79 2.5 SSE 17 24 9 13 1012.3 - 0.0
04/04:30pm 24.6 24.5 19.6 73 3.2 SSE 19 30 10 16 1012.1 - 0.0
04/04:00pm 24.7 24.5 19.7 73 3.2 SSE 20 28 11 15 1012.0 - 0.0
04/03:30pm 24.9 24.8 20.0 74 3.2 SSE 20 32 11 17 1012.0 - 0.0
04/03:00pm 25.5 24.9 18.8 66 4.3 SSE 20 30 11 16 1011.9 1011.6 0.0
04/02:30pm 25.5 24.6 18.2 64 4.6 SE 20 32 11 17 1012.1 - 0.0
04/02:00pm 26.2 25.1 18.7 63 4.8 SE 22 33 12 18 1012.4 - 0.0
04/01:30pm 26.9 25.7 18.4 59 5.4 SE 22 32 12 17 1012.8 - 0.0
04/01:00pm 27.0 25.3 18.0 58 5.7 SE 24 37 13 20 1013.2 - 0.0
04/12:30pm 27.0 26.0 18.0 58 5.7 SSE 20 28 11 15 1013.7 - 0.0
04/12:00pm 26.7 25.7 18.0 59 5.5 SSE 20 30 11 16 1014.1 1013.8 0.0
04/11:30am 27.2 26.7 18.6 59 5.5 SSE 19 32 10 17 1014.5 - 0.0
04/11:00am 26.4 25.1 18.2 60 5.2 SSE 22 30 12 16 1015.0 - 0.0
04/10:30am 26.4 24.7 18.2 60 5.2 SE 24 28 13 15 1015.2 - 0.0
04/10:00am 26.1 24.4 18.2 61 5.0 SE 24 32 13 17 1015.3 - 0.0
04/09:30am 25.9 25.2 18.7 64 4.6 SE 20 28 11 15 1015.3 - 0.0
04/09:00am 25.2 24.9 19.1 69 3.9 SSE 19 30 10 16 1015.5 1015.3 0.0
04/08:30am 24.7 25.8 19.6 73 3.3 SSE 13 20 7 11 1015.1 - 0.0
04/08:00am 23.5 24.0 19.3 77 2.7 S 15 20 8 11 1014.6 - 0.0
04/07:30am 22.5 23.7 19.0 80 2.2 S 11 15 6 8 1014.3 - 0.0
04/07:00am 21.6 22.6 18.7 83 1.8 SSE 11 13 6 7 1014.2 - 0.0
04/06:30am 21.7 22.9 19.0 84 1.7 S 11 15 6 8 1014.2 - 0.0
04/06:00am 22.1 22.5 18.9 82 2.0 SE 15 17 8 9 1014.3 1014.0 0.0
04/05:30am 22.5 22.5 18.9 80 2.3 ESE 17 22 9 12 1014.3 - 0.0
04/05:00am 22.6 22.5 18.8 79 2.4 ESE 17 20 9 11 1014.5 - 0.0
04/04:30am 22.9 22.7 18.6 77 2.7 SE 17 20 9 11 1014.3 - 0.0
04/04:00am 23.1 22.6 18.7 76 2.8 SE 19 24 10 13 1014.2 - 0.0
04/03:30am 22.9 23.2 18.8 77 2.6 SE 15 19 8 10 1013.9 - 0.0
04/03:00am 22.2 23.6 18.7 80 2.2 SSE 9 15 5 8 1014.0 1013.7 0.0
04/02:30am 22.8 23.0 18.5 77 2.7 SSE 15 20 8 11 1014.1 - 0.0
04/02:00am 23.3 22.8 18.7 75 2.9 SSE 19 28 10 15 1014.2 - 0.0
04/01:30am 23.4 22.8 18.8 75 2.9 SSE 20 28 11 15 1014.4 - 0.0
04/01:00am 23.4 23.0 18.8 75 2.9 SSE 19 26 10 14 1014.6 - 0.0
04/12:30am 23.3 22.8 19.2 78 2.6 SE 20 28 11 15 1014.7 - 0.0
04/12:00am 23.1 22.8 19.5 80 2.3 SE 20 26 11 14 1014.9 1014.7 0.0
 
Date/Time
CST
Temp
°C
App
Temp
°C
Dew
Point
Rel
Hum
%
Delta-T
°C
Wind Press
QNH
hPa
Press
MSL
hPa
Rain
since 9 am
mm
Dir
 
Spd
km/h
Gust
km/h
Spd
kts
Gust
kts
03/11:30pm 23.0 22.9 19.6 81 2.2 SE 19 28 10 15 1015.2 - 0.0
03/11:00pm 23.0 23.2 19.4 80 2.3 SE 17 22 9 12 1015.2 - 0.0
03/10:30pm 23.0 23.2 19.4 80 2.3 SE 17 26 9 14 1015.3 - 0.0
03/10:00pm 23.3 23.4 19.2 78 2.6 SE 17 26 9 14 1015.4 - 0.0
03/09:30pm 23.4 23.2 19.3 78 2.6 SE 19 26 10 14 1015.4 - 0.0

Other Formats:

Comma delimited format used in spreadsheet applications
http://www.bom.gov.au/fwo/IDD60801/IDD60801.94150.axf

JavaScript Object Notation format (JSON) in row-major order
http://www.bom.gov.au/fwo/IDD60801/IDD60801.94150.json